sensor_id;sensor_type;location;lat;lon;timestamp;P1;durP1;ratioP1;P2;durP2;ratioP2
10977;SDS011;5542;48.272;10.794;2022-10-31T00:01:09;3.05;;;2.70;;
10977;SDS011;5542;48.272;10.794;2022-10-31T00:03:36;2.60;;;2.40;;
10977;SDS011;5542;48.272;10.794;2022-10-31T00:06:03;2.53;;;2.33;;
10977;SDS011;5542;48.272;10.794;2022-10-31T00:08:29;3.10;;;2.80;;
10977;SDS011;5542;48.272;10.794;2022-10-31T00:10:57;2.60;;;2.40;;
10977;SDS011;5542;48.272;10.794;2022-10-31T00:13:24;2.88;;;2.58;;
10977;SDS011;5542;48.272;10.794;2022-10-31T00:15:50;2.65;;;2.30;;
10977;SDS011;5542;48.272;10.794;2022-10-31T00:18:17;2.55;;;2.30;;
10977;SDS011;5542;48.272;10.794;2022-10-31T00:20:43;6.05;;;3.13;;
10977;SDS011;5542;48.272;10.794;2022-10-31T00:23:10;3.38;;;3.00;;
10977;SDS011;5542;48.272;10.794;2022-10-31T00:25:38;3.90;;;3.03;;
10977;SDS011;5542;48.272;10.794;2022-10-31T00:28:07;3.47;;;2.88;;
10977;SDS011;5542;48.272;10.794;2022-10-31T00:30:37;3.63;;;3.00;;
10977;SDS011;5542;48.272;10.794;2022-10-31T00:33:03;3.55;;;3.00;;
10977;SDS011;5542;48.272;10.794;2022-10-31T00:35:30;4.75;;;3.10;;
10977;SDS011;5542;48.272;10.794;2022-10-31T00:37:57;4.72;;;3.20;;
10977;SDS011;5542;48.272;10.794;2022-10-31T00:40:23;4.13;;;3.00;;
10977;SDS011;5542;48.272;10.794;2022-10-31T00:42:50;3.35;;;2.80;;
10977;SDS011;5542;48.272;10.794;2022-10-31T00:45:18;3.30;;;2.70;;
10977;SDS011;5542;48.272;10.794;2022-10-31T00:47:44;3.10;;;2.80;;
10977;SDS011;5542;48.272;10.794;2022-10-31T00:50:11;4.35;;;2.75;;
10977;SDS011;5542;48.272;10.794;2022-10-31T00:52:38;3.85;;;2.85;;
10977;SDS011;5542;48.272;10.794;2022-10-31T00:55:04;2.60;;;2.40;;
10977;SDS011;5542;48.272;10.794;2022-10-31T00:57:31;3.53;;;3.00;;
10977;SDS011;5542;48.272;10.794;2022-10-31T00:59:57;3.72;;;3.10;;
10977;SDS011;5542;48.272;10.794;2022-10-31T01:02:25;3.25;;;2.95;;
10977;SDS011;5542;48.272;10.794;2022-10-31T01:04:52;3.50;;;2.83;;
10977;SDS011;5542;48.272;10.794;2022-10-31T01:07:18;3.58;;;3.20;;
10977;SDS011;5542;48.272;10.794;2022-10-31T01:09:45;2.97;;;2.67;;
10977;SDS011;5542;48.272;10.794;2022-10-31T01:12:12;3.47;;;3.05;;
10977;SDS011;5542;48.272;10.794;2022-10-31T01:14:41;3.20;;;2.80;;
10977;SDS011;5542;48.272;10.794;2022-10-31T01:17:09;4.07;;;2.90;;
10977;SDS011;5542;48.272;10.794;2022-10-31T01:19:37;3.47;;;2.58;;
10977;SDS011;5542;48.272;10.794;2022-10-31T01:22:03;3.08;;;2.60;;
10977;SDS011;5542;48.272;10.794;2022-10-31T01:24:30;4.88;;;2.95;;
10977;SDS011;5542;48.272;10.794;2022-10-31T01:26:56;3.00;;;2.70;;
10977;SDS011;5542;48.272;10.794;2022-10-31T01:29:23;3.38;;;2.60;;
10977;SDS011;5542;48.272;10.794;2022-10-31T01:31:50;2.80;;;2.50;;
10977;SDS011;5542;48.272;10.794;2022-10-31T01:34:17;3.00;;;2.78;;
10977;SDS011;5542;48.272;10.794;2022-10-31T01:36:45;3.08;;;2.80;;
10977;SDS011;5542;48.272;10.794;2022-10-31T01:39:16;2.85;;;2.60;;
10977;SDS011;5542;48.272;10.794;2022-10-31T01:41:44;3.28;;;2.67;;
10977;SDS011;5542;48.272;10.794;2022-10-31T01:47:17;4.43;;;2.33;;
10977;SDS011;5542;48.272;10.794;2022-10-31T01:49:46;2.90;;;2.60;;
10977;SDS011;5542;48.272;10.794;2022-10-31T01:52:19;2.30;;;2.20;;
10977;SDS011;5542;48.272;10.794;2022-10-31T01:54:51;2.75;;;2.55;;
10977;SDS011;5542;48.272;10.794;2022-10-31T01:57:23;2.72;;;2.50;;
10977;SDS011;5542;48.272;10.794;2022-10-31T01:59:52;3.20;;;2.53;;
10977;SDS011;5542;48.272;10.794;2022-10-31T02:02:23;2.90;;;2.60;;
10977;SDS011;5542;48.272;10.794;2022-10-31T02:04:51;2.58;;;2.38;;
10977;SDS011;5542;48.272;10.794;2022-10-31T02:07:22;3.00;;;2.70;;
10977;SDS011;5542;48.272;10.794;2022-10-31T02:09:52;3.17;;;2.88;;
10977;SDS011;5542;48.272;10.794;2022-10-31T02:12:21;3.83;;;3.42;;
10977;SDS011;5542;48.272;10.794;2022-10-31T02:14:48;3.20;;;2.90;;
10977;SDS011;5542;48.272;10.794;2022-10-31T02:17:14;3.05;;;2.75;;
10977;SDS011;5542;48.272;10.794;2022-10-31T02:19:44;3.20;;;2.83;;
10977;SDS011;5542;48.272;10.794;2022-10-31T02:22:20;2.70;;;2.50;;
10977;SDS011;5542;48.272;10.794;2022-10-31T02:24:57;3.15;;;2.40;;
10977;SDS011;5542;48.272;10.794;2022-10-31T02:30:40;2.30;;;2.20;;
10977;SDS011;5542;48.272;10.794;2022-10-31T02:33:22;2.38;;;2.20;;
10977;SDS011;5542;48.272;10.794;2022-10-31T02:35:54;3.25;;;2.60;;
10977;SDS011;5542;48.272;10.794;2022-10-31T02:38:35;2.40;;;2.20;;
10977;SDS011;5542;48.272;10.794;2022-10-31T02:41:10;2.50;;;1.92;;
10977;SDS011;5542;48.272;10.794;2022-10-31T02:43:45;2.30;;;2.10;;
10977;SDS011;5542;48.272;10.794;2022-10-31T02:46:23;2.53;;;2.33;;
10977;SDS011;5542;48.272;10.794;2022-10-31T02:48:54;2.38;;;2.17;;
10977;SDS011;5542;48.272;10.794;2022-10-31T02:51:26;2.17;;;1.98;;
10977;SDS011;5542;48.272;10.794;2022-10-31T02:53:53;2.15;;;2.00;;
10977;SDS011;5542;48.272;10.794;2022-10-31T02:56:20;1.80;;;1.70;;
10977;SDS011;5542;48.272;10.794;2022-10-31T02:58:47;3.08;;;2.50;;
10977;SDS011;5542;48.272;10.794;2022-10-31T03:01:21;2.50;;;2.20;;
10977;SDS011;5542;48.272;10.794;2022-10-31T03:04:07;2.33;;;2.10;;
10977;SDS011;5542;48.272;10.794;2022-10-31T03:06:45;1.98;;;1.70;;
10977;SDS011;5542;48.272;10.794;2022-10-31T03:09:20;3.05;;;1.80;;
10977;SDS011;5542;48.272;10.794;2022-10-31T03:11:52;1.90;;;1.80;;
10977;SDS011;5542;48.272;10.794;2022-10-31T03:14:26;3.60;;;2.20;;
10977;SDS011;5542;48.272;10.794;2022-10-31T03:17:05;2.33;;;2.13;;
10977;SDS011;5542;48.272;10.794;2022-10-31T03:19:34;2.28;;;2.17;;
10977;SDS011;5542;48.272;10.794;2022-10-31T03:22:07;2.57;;;1.77;;
10977;SDS011;5542;48.272;10.794;2022-10-31T03:24:41;2.00;;;1.90;;
10977;SDS011;5542;48.272;10.794;2022-10-31T03:27:09;2.10;;;1.90;;
10977;SDS011;5542;48.272;10.794;2022-10-31T03:29:41;2.80;;;2.17;;
10977;SDS011;5542;48.272;10.794;2022-10-31T03:32:12;1.90;;;1.80;;
10977;SDS011;5542;48.272;10.794;2022-10-31T03:34:42;2.00;;;1.80;;
10977;SDS011;5542;48.272;10.794;2022-10-31T03:37:11;1.88;;;1.67;;
10977;SDS011;5542;48.272;10.794;2022-10-31T03:39:41;1.77;;;1.67;;
10977;SDS011;5542;48.272;10.794;2022-10-31T03:42:12;2.08;;;1.88;;
10977;SDS011;5542;48.272;10.794;2022-10-31T03:44:42;1.92;;;1.80;;
10977;SDS011;5542;48.272;10.794;2022-10-31T03:47:16;1.90;;;1.80;;
10977;SDS011;5542;48.272;10.794;2022-10-31T03:49:43;2.30;;;2.10;;
10977;SDS011;5542;48.272;10.794;2022-10-31T03:52:11;1.80;;;1.70;;
10977;SDS011;5542;48.272;10.794;2022-10-31T03:54:46;2.03;;;1.90;;
10977;SDS011;5542;48.272;10.794;2022-10-31T03:57:19;2.93;;;1.87;;
10977;SDS011;5542;48.272;10.794;2022-10-31T03:59:51;2.30;;;2.00;;
10977;SDS011;5542;48.272;10.794;2022-10-31T04:02:25;1.88;;;1.77;;
10977;SDS011;5542;48.272;10.794;2022-10-31T04:04:55;2.50;;;2.30;;
10977;SDS011;5542;48.272;10.794;2022-10-31T04:07:22;2.72;;;2.25;;
10977;SDS011;5542;48.272;10.794;2022-10-31T04:09:54;2.63;;;2.20;;
10977;SDS011;5542;48.272;10.794;2022-10-31T04:12:23;2.95;;;2.20;;
10977;SDS011;5542;48.272;10.794;2022-10-31T04:14:52;2.80;;;2.60;;
10977;SDS011;5542;48.272;10.794;2022-10-31T04:17:21;2.38;;;2.28;;
10977;SDS011;5542;48.272;10.794;2022-10-31T04:19:53;2.33;;;2.13;;
10977;SDS011;5542;48.272;10.794;2022-10-31T04:22:20;3.03;;;2.38;;
10977;SDS011;5542;48.272;10.794;2022-10-31T04:24:46;2.78;;;2.35;;
10977;SDS011;5542;48.272;10.794;2022-10-31T04:27:13;3.10;;;2.83;;
10977;SDS011;5542;48.272;10.794;2022-10-31T04:29:39;11.70;;;7.47;;
10977;SDS011;5542;48.272;10.794;2022-10-31T04:32:06;13.20;;;8.63;;
10977;SDS011;5542;48.272;10.794;2022-10-31T04:34:34;7.35;;;6.20;;
10977;SDS011;5542;48.272;10.794;2022-10-31T04:37:00;5.70;;;4.30;;
10977;SDS011;5542;48.272;10.794;2022-10-31T04:39:27;4.20;;;3.80;;
10977;SDS011;5542;48.272;10.794;2022-10-31T04:41:53;4.10;;;3.55;;
10977;SDS011;5542;48.272;10.794;2022-10-31T04:44:20;3.92;;;3.22;;
10977;SDS011;5542;48.272;10.794;2022-10-31T04:46:46;2.83;;;2.60;;
10977;SDS011;5542;48.272;10.794;2022-10-31T04:49:13;3.20;;;2.90;;
10977;SDS011;5542;48.272;10.794;2022-10-31T04:51:41;2.92;;;2.70;;
10977;SDS011;5542;48.272;10.794;2022-10-31T04:54:07;18.80;;;10.77;;
10977;SDS011;5542;48.272;10.794;2022-10-31T04:56:34;12.88;;;8.30;;
10977;SDS011;5542;48.272;10.794;2022-10-31T04:59:00;11.60;;;7.57;;
10977;SDS011;5542;48.272;10.794;2022-10-31T05:01:27;7.40;;;5.07;;
10977;SDS011;5542;48.272;10.794;2022-10-31T05:03:54;6.70;;;4.15;;
10977;SDS011;5542;48.272;10.794;2022-10-31T05:06:20;4.57;;;3.70;;
10977;SDS011;5542;48.272;10.794;2022-10-31T05:08:48;3.45;;;3.08;;
10977;SDS011;5542;48.272;10.794;2022-10-31T05:11:15;4.13;;;3.17;;
10977;SDS011;5542;48.272;10.794;2022-10-31T05:13:42;2.70;;;2.50;;
10977;SDS011;5542;48.272;10.794;2022-10-31T05:16:08;2.88;;;2.67;;
10977;SDS011;5542;48.272;10.794;2022-10-31T05:18:35;2.60;;;2.40;;
10977;SDS011;5542;48.272;10.794;2022-10-31T05:21:01;2.67;;;2.47;;
10977;SDS011;5542;48.272;10.794;2022-10-31T05:23:28;2.33;;;2.13;;
10977;SDS011;5542;48.272;10.794;2022-10-31T05:25:56;2.60;;;2.38;;
10977;SDS011;5542;48.272;10.794;2022-10-31T05:28:23;2.85;;;2.55;;
10977;SDS011;5542;48.272;10.794;2022-10-31T05:30:49;2.90;;;2.50;;
10977;SDS011;5542;48.272;10.794;2022-10-31T05:33:16;3.30;;;3.00;;
10977;SDS011;5542;48.272;10.794;2022-10-31T05:35:42;3.33;;;2.90;;
10977;SDS011;5542;48.272;10.794;2022-10-31T05:38:09;3.15;;;2.90;;
10977;SDS011;5542;48.272;10.794;2022-10-31T05:40:36;2.88;;;2.67;;
10977;SDS011;5542;48.272;10.794;2022-10-31T05:43:03;2.45;;;2.25;;
10977;SDS011;5542;48.272;10.794;2022-10-31T05:45:30;3.00;;;2.80;;
10977;SDS011;5542;48.272;10.794;2022-10-31T05:47:57;2.90;;;2.70;;
10977;SDS011;5542;48.272;10.794;2022-10-31T05:50:25;2.50;;;2.30;;
10977;SDS011;5542;48.272;10.794;2022-10-31T05:52:56;4.23;;;2.87;;
10977;SDS011;5542;48.272;10.794;2022-10-31T05:55:23;3.13;;;2.80;;
10977;SDS011;5542;48.272;10.794;2022-10-31T05:57:50;3.17;;;2.97;;
10977;SDS011;5542;48.272;10.794;2022-10-31T06:00:19;2.80;;;2.60;;
10977;SDS011;5542;48.272;10.794;2022-10-31T06:02:47;2.70;;;2.50;;
10977;SDS011;5542;48.272;10.794;2022-10-31T06:05:14;2.60;;;2.40;;
10977;SDS011;5542;48.272;10.794;2022-10-31T06:07:41;3.35;;;2.85;;
10977;SDS011;5542;48.272;10.794;2022-10-31T06:10:08;4.53;;;3.63;;
10977;SDS011;5542;48.272;10.794;2022-10-31T06:12:35;3.78;;;3.38;;
10977;SDS011;5542;48.272;10.794;2022-10-31T06:15:03;3.30;;;3.00;;
10977;SDS011;5542;48.272;10.794;2022-10-31T06:17:32;2.53;;;2.33;;
10977;SDS011;5542;48.272;10.794;2022-10-31T06:19:59;2.67;;;2.47;;
10977;SDS011;5542;48.272;10.794;2022-10-31T06:22:26;2.45;;;2.22;;
10977;SDS011;5542;48.272;10.794;2022-10-31T06:24:53;2.28;;;2.08;;
10977;SDS011;5542;48.272;10.794;2022-10-31T06:27:19;2.20;;;2.10;;
10977;SDS011;5542;48.272;10.794;2022-10-31T06:29:46;2.30;;;2.10;;
10977;SDS011;5542;48.272;10.794;2022-10-31T06:32:12;2.50;;;2.30;;
10977;SDS011;5542;48.272;10.794;2022-10-31T06:34:40;2.80;;;2.60;;
10977;SDS011;5542;48.272;10.794;2022-10-31T06:37:08;2.65;;;2.45;;
10977;SDS011;5542;48.272;10.794;2022-10-31T06:39:36;2.80;;;2.60;;
10977;SDS011;5542;48.272;10.794;2022-10-31T06:42:03;2.80;;;2.50;;
10977;SDS011;5542;48.272;10.794;2022-10-31T06:44:30;2.80;;;2.60;;
10977;SDS011;5542;48.272;10.794;2022-10-31T06:46:57;2.10;;;2.00;;
10977;SDS011;5542;48.272;10.794;2022-10-31T06:49:23;2.60;;;2.40;;
10977;SDS011;5542;48.272;10.794;2022-10-31T06:51:51;2.50;;;2.30;;
10977;SDS011;5542;48.272;10.794;2022-10-31T06:54:18;3.10;;;2.90;;
10977;SDS011;5542;48.272;10.794;2022-10-31T06:56:45;2.72;;;2.53;;
10977;SDS011;5542;48.272;10.794;2022-10-31T06:59:12;2.88;;;2.67;;
10977;SDS011;5542;48.272;10.794;2022-10-31T07:01:38;2.85;;;2.50;;
10977;SDS011;5542;48.272;10.794;2022-10-31T07:04:05;2.53;;;2.38;;
10977;SDS011;5542;48.272;10.794;2022-10-31T07:06:32;2.92;;;2.67;;
10977;SDS011;5542;48.272;10.794;2022-10-31T07:09:00;2.80;;;2.60;;
10977;SDS011;5542;48.272;10.794;2022-10-31T07:11:26;3.47;;;2.50;;
10977;SDS011;5542;48.272;10.794;2022-10-31T07:13:53;3.50;;;2.50;;
10977;SDS011;5542;48.272;10.794;2022-10-31T07:16:19;4.72;;;3.05;;
10977;SDS011;5542;48.272;10.794;2022-10-31T07:18:46;2.90;;;2.50;;
10977;SDS011;5542;48.272;10.794;2022-10-31T07:21:12;3.88;;;2.45;;
10977;SDS011;5542;48.272;10.794;2022-10-31T07:23:39;3.40;;;2.90;;
10977;SDS011;5542;48.272;10.794;2022-10-31T07:26:07;4.88;;;3.10;;
10977;SDS011;5542;48.272;10.794;2022-10-31T07:28:34;3.58;;;2.65;;
10977;SDS011;5542;48.272;10.794;2022-10-31T07:31:00;3.08;;;2.58;;
10977;SDS011;5542;48.272;10.794;2022-10-31T07:33:27;4.10;;;3.05;;
10977;SDS011;5542;48.272;10.794;2022-10-31T07:35:53;3.63;;;2.80;;
10977;SDS011;5542;48.272;10.794;2022-10-31T07:38:20;4.27;;;2.67;;
10977;SDS011;5542;48.272;10.794;2022-10-31T07:40:49;5.20;;;2.80;;
10977;SDS011;5542;48.272;10.794;2022-10-31T07:43:18;2.97;;;2.78;;
10977;SDS011;5542;48.272;10.794;2022-10-31T07:45:48;5.50;;;2.90;;
10977;SDS011;5542;48.272;10.794;2022-10-31T07:48:16;3.92;;;2.70;;
10977;SDS011;5542;48.272;10.794;2022-10-31T07:50:43;3.10;;;2.80;;
10977;SDS011;5542;48.272;10.794;2022-10-31T07:53:10;3.80;;;2.47;;
10977;SDS011;5542;48.272;10.794;2022-10-31T07:55:37;3.53;;;2.73;;
10977;SDS011;5542;48.272;10.794;2022-10-31T07:58:04;3.35;;;2.63;;
10977;SDS011;5542;48.272;10.794;2022-10-31T08:00:34;4.85;;;2.60;;
10977;SDS011;5542;48.272;10.794;2022-10-31T08:03:02;3.80;;;2.53;;
10977;SDS011;5542;48.272;10.794;2022-10-31T08:05:30;3.30;;;2.70;;
10977;SDS011;5542;48.272;10.794;2022-10-31T08:07:57;3.08;;;2.80;;
10977;SDS011;5542;48.272;10.794;2022-10-31T08:10:24;2.95;;;2.60;;
10977;SDS011;5542;48.272;10.794;2022-10-31T08:12:55;3.60;;;2.33;;
10977;SDS011;5542;48.272;10.794;2022-10-31T08:15:22;4.17;;;2.57;;
10977;SDS011;5542;48.272;10.794;2022-10-31T08:17:51;4.43;;;2.60;;
10977;SDS011;5542;48.272;10.794;2022-10-31T08:20:17;3.33;;;2.75;;
10977;SDS011;5542;48.272;10.794;2022-10-31T08:22:51;3.20;;;2.47;;
10977;SDS011;5542;48.272;10.794;2022-10-31T08:25:22;4.20;;;2.25;;
10977;SDS011;5542;48.272;10.794;2022-10-31T08:27:49;2.85;;;2.33;;
10977;SDS011;5542;48.272;10.794;2022-10-31T08:30:16;2.42;;;2.10;;
10977;SDS011;5542;48.272;10.794;2022-10-31T08:32:43;4.25;;;2.17;;
10977;SDS011;5542;48.272;10.794;2022-10-31T08:35:11;2.40;;;2.17;;
10977;SDS011;5542;48.272;10.794;2022-10-31T08:37:38;3.53;;;2.42;;
10977;SDS011;5542;48.272;10.794;2022-10-31T08:40:05;3.97;;;2.40;;
10977;SDS011;5542;48.272;10.794;2022-10-31T08:42:32;2.33;;;2.13;;
10977;SDS011;5542;48.272;10.794;2022-10-31T08:44:59;2.33;;;2.03;;
10977;SDS011;5542;48.272;10.794;2022-10-31T08:47:25;3.43;;;2.20;;
10977;SDS011;5542;48.272;10.794;2022-10-31T08:49:52;5.65;;;2.72;;
10977;SDS011;5542;48.272;10.794;2022-10-31T08:52:23;4.28;;;2.65;;
10977;SDS011;5542;48.272;10.794;2022-10-31T08:54:51;2.63;;;2.40;;
10977;SDS011;5542;48.272;10.794;2022-10-31T08:57:17;2.53;;;1.92;;
10977;SDS011;5542;48.272;10.794;2022-10-31T08:59:44;2.97;;;2.27;;
10977;SDS011;5542;48.272;10.794;2022-10-31T09:02:10;2.50;;;2.27;;
10977;SDS011;5542;48.272;10.794;2022-10-31T09:04:37;2.13;;;2.00;;
10977;SDS011;5542;48.272;10.794;2022-10-31T09:07:03;2.83;;;2.43;;
10977;SDS011;5542;48.272;10.794;2022-10-31T09:09:31;2.70;;;2.22;;
10977;SDS011;5542;48.272;10.794;2022-10-31T09:11:58;3.22;;;2.60;;
10977;SDS011;5542;48.272;10.794;2022-10-31T09:14:25;4.80;;;2.55;;
10977;SDS011;5542;48.272;10.794;2022-10-31T09:16:51;4.20;;;2.78;;
10977;SDS011;5542;48.272;10.794;2022-10-31T09:19:18;2.50;;;2.30;;
10977;SDS011;5542;48.272;10.794;2022-10-31T09:21:44;4.97;;;3.20;;
10977;SDS011;5542;48.272;10.794;2022-10-31T09:24:11;2.92;;;2.63;;
10977;SDS011;5542;48.272;10.794;2022-10-31T09:26:39;3.00;;;2.40;;
10977;SDS011;5542;48.272;10.794;2022-10-31T09:29:05;3.17;;;2.70;;
10977;SDS011;5542;48.272;10.794;2022-10-31T09:31:34;2.67;;;2.47;;
10977;SDS011;5542;48.272;10.794;2022-10-31T09:34:01;4.35;;;3.03;;
10977;SDS011;5542;48.272;10.794;2022-10-31T09:36:27;4.00;;;3.20;;
10977;SDS011;5542;48.272;10.794;2022-10-31T09:38:54;3.63;;;2.63;;
10977;SDS011;5542;48.272;10.794;2022-10-31T09:41:23;5.63;;;3.05;;
10977;SDS011;5542;48.272;10.794;2022-10-31T09:43:57;5.47;;;3.38;;
10977;SDS011;5542;48.272;10.794;2022-10-31T09:46:34;5.40;;;4.32;;
10977;SDS011;5542;48.272;10.794;2022-10-31T09:49:20;4.57;;;4.10;;
10977;SDS011;5542;48.272;10.794;2022-10-31T09:52:00;5.63;;;3.92;;
10977;SDS011;5542;48.272;10.794;2022-10-31T09:54:30;5.95;;;3.65;;
10977;SDS011;5542;48.272;10.794;2022-10-31T09:57:01;4.93;;;3.85;;
10977;SDS011;5542;48.272;10.794;2022-10-31T09:59:30;7.28;;;4.20;;
10977;SDS011;5542;48.272;10.794;2022-10-31T10:02:01;5.50;;;4.22;;
10977;SDS011;5542;48.272;10.794;2022-10-31T10:04:32;4.93;;;3.88;;
10977;SDS011;5542;48.272;10.794;2022-10-31T10:07:06;7.20;;;4.35;;
10977;SDS011;5542;48.272;10.794;2022-10-31T10:09:38;7.20;;;5.25;;
10977;SDS011;5542;48.272;10.794;2022-10-31T10:12:07;6.45;;;5.55;;
10977;SDS011;5542;48.272;10.794;2022-10-31T10:14:45;5.53;;;4.97;;
10977;SDS011;5542;48.272;10.794;2022-10-31T10:17:25;9.70;;;4.68;;
10977;SDS011;5542;48.272;10.794;2022-10-31T10:20:05;6.05;;;5.15;;
10977;SDS011;5542;48.272;10.794;2022-10-31T10:22:50;6.45;;;5.35;;
10977;SDS011;5542;48.272;10.794;2022-10-31T10:25:22;7.63;;;4.88;;
10977;SDS011;5542;48.272;10.794;2022-10-31T10:27:54;6.93;;;4.70;;
10977;SDS011;5542;48.272;10.794;2022-10-31T10:30:30;5.30;;;4.63;;
10977;SDS011;5542;48.272;10.794;2022-10-31T10:33:02;5.78;;;4.75;;
10977;SDS011;5542;48.272;10.794;2022-10-31T10:35:36;4.80;;;4.40;;
10977;SDS011;5542;48.272;10.794;2022-10-31T10:38:09;5.35;;;4.70;;
10977;SDS011;5542;48.272;10.794;2022-10-31T10:40:41;7.40;;;5.22;;
10977;SDS011;5542;48.272;10.794;2022-10-31T10:43:18;8.40;;;5.25;;
10977;SDS011;5542;48.272;10.794;2022-10-31T10:45:53;5.40;;;4.15;;
10977;SDS011;5542;48.272;10.794;2022-10-31T10:48:57;7.28;;;5.70;;
10977;SDS011;5542;48.272;10.794;2022-10-31T10:51:32;7.78;;;4.93;;
10977;SDS011;5542;48.272;10.794;2022-10-31T10:54:09;4.32;;;3.80;;
10977;SDS011;5542;48.272;10.794;2022-10-31T10:57:00;6.38;;;3.83;;
10977;SDS011;5542;48.272;10.794;2022-10-31T10:59:37;4.03;;;3.63;;
10977;SDS011;5542;48.272;10.794;2022-10-31T11:02:08;5.28;;;3.90;;
10977;SDS011;5542;48.272;10.794;2022-10-31T11:04:42;7.17;;;4.80;;
10977;SDS011;5542;48.272;10.794;2022-10-31T11:07:10;8.00;;;5.10;;
10977;SDS011;5542;48.272;10.794;2022-10-31T11:09:37;7.33;;;5.40;;
10977;SDS011;5542;48.272;10.794;2022-10-31T11:12:06;5.88;;;5.05;;
10977;SDS011;5542;48.272;10.794;2022-10-31T11:14:35;6.70;;;4.30;;
10977;SDS011;5542;48.272;10.794;2022-10-31T11:17:15;6.25;;;4.97;;
10977;SDS011;5542;48.272;10.794;2022-10-31T11:19:58;5.35;;;4.85;;
10977;SDS011;5542;48.272;10.794;2022-10-31T11:22:26;5.00;;;4.10;;
10977;SDS011;5542;48.272;10.794;2022-10-31T11:24:52;6.72;;;5.22;;
10977;SDS011;5542;48.272;10.794;2022-10-31T11:27:20;6.93;;;5.07;;
10977;SDS011;5542;48.272;10.794;2022-10-31T11:29:48;5.57;;;4.13;;
10977;SDS011;5542;48.272;10.794;2022-10-31T11:32:18;8.68;;;5.10;;
10977;SDS011;5542;48.272;10.794;2022-10-31T11:34:47;6.13;;;4.78;;
10977;SDS011;5542;48.272;10.794;2022-10-31T11:37:18;6.57;;;5.40;;
10977;SDS011;5542;48.272;10.794;2022-10-31T11:39:49;5.00;;;4.57;;
10977;SDS011;5542;48.272;10.794;2022-10-31T11:42:19;10.07;;;5.90;;
10977;SDS011;5542;48.272;10.794;2022-10-31T11:44:48;7.22;;;5.82;;
10977;SDS011;5542;48.272;10.794;2022-10-31T11:47:20;9.98;;;6.43;;
10977;SDS011;5542;48.272;10.794;2022-10-31T11:49:51;8.27;;;5.50;;
10977;SDS011;5542;48.272;10.794;2022-10-31T11:52:19;9.38;;;5.13;;
10977;SDS011;5542;48.272;10.794;2022-10-31T11:54:50;10.80;;;6.38;;
10977;SDS011;5542;48.272;10.794;2022-10-31T11:57:21;9.00;;;6.27;;
10977;SDS011;5542;48.272;10.794;2022-10-31T11:59:50;7.43;;;5.47;;
10977;SDS011;5542;48.272;10.794;2022-10-31T12:02:20;9.27;;;5.93;;
10977;SDS011;5542;48.272;10.794;2022-10-31T12:04:48;8.30;;;5.80;;
10977;SDS011;5542;48.272;10.794;2022-10-31T12:07:19;5.20;;;4.70;;
10977;SDS011;5542;48.272;10.794;2022-10-31T12:09:45;9.00;;;6.07;;
10977;SDS011;5542;48.272;10.794;2022-10-31T12:12:20;9.52;;;6.30;;
10977;SDS011;5542;48.272;10.794;2022-10-31T12:15:10;6.40;;;5.25;;
10977;SDS011;5542;48.272;10.794;2022-10-31T12:17:51;8.70;;;5.50;;
10977;SDS011;5542;48.272;10.794;2022-10-31T12:20:26;8.43;;;6.15;;
10977;SDS011;5542;48.272;10.794;2022-10-31T12:23:05;9.27;;;6.45;;
10977;SDS011;5542;48.272;10.794;2022-10-31T12:25:39;10.00;;;6.43;;
10977;SDS011;5542;48.272;10.794;2022-10-31T12:28:19;7.88;;;5.63;;
10977;SDS011;5542;48.272;10.794;2022-10-31T12:31:08;4.93;;;4.45;;
10977;SDS011;5542;48.272;10.794;2022-10-31T12:33:54;5.57;;;4.57;;
10977;SDS011;5542;48.272;10.794;2022-10-31T12:36:38;7.28;;;6.00;;
10977;SDS011;5542;48.272;10.794;2022-10-31T12:42:02;7.78;;;5.70;;
10977;SDS011;5542;48.272;10.794;2022-10-31T12:44:46;8.27;;;5.38;;
10977;SDS011;5542;48.272;10.794;2022-10-31T12:47:26;5.97;;;4.40;;
10977;SDS011;5542;48.272;10.794;2022-10-31T12:50:18;8.75;;;5.38;;
10977;SDS011;5542;48.272;10.794;2022-10-31T12:52:54;5.80;;;4.70;;
10977;SDS011;5542;48.272;10.794;2022-10-31T12:55:31;10.88;;;5.57;;
10977;SDS011;5542;48.272;10.794;2022-10-31T12:58:07;7.07;;;5.43;;
10977;SDS011;5542;48.272;10.794;2022-10-31T13:00:38;6.28;;;4.70;;
10977;SDS011;5542;48.272;10.794;2022-10-31T13:03:14;6.65;;;4.20;;
10977;SDS011;5542;48.272;10.794;2022-10-31T13:05:51;3.90;;;3.60;;
10977;SDS011;5542;48.272;10.794;2022-10-31T13:08:22;6.78;;;4.30;;
10977;SDS011;5542;48.272;10.794;2022-10-31T13:10:55;6.57;;;5.07;;
10977;SDS011;5542;48.272;10.794;2022-10-31T13:13:32;7.63;;;5.43;;
10977;SDS011;5542;48.272;10.794;2022-10-31T13:16:05;7.68;;;5.53;;
10977;SDS011;5542;48.272;10.794;2022-10-31T13:18:38;7.97;;;6.18;;
10977;SDS011;5542;48.272;10.794;2022-10-31T13:21:10;9.02;;;6.05;;
10977;SDS011;5542;48.272;10.794;2022-10-31T13:23:44;7.90;;;5.93;;
10977;SDS011;5542;48.272;10.794;2022-10-31T13:26:13;8.75;;;5.50;;
10977;SDS011;5542;48.272;10.794;2022-10-31T13:28:47;7.20;;;5.38;;
10977;SDS011;5542;48.272;10.794;2022-10-31T13:31:17;9.60;;;7.07;;
10977;SDS011;5542;48.272;10.794;2022-10-31T13:33:44;7.60;;;6.13;;
10977;SDS011;5542;48.272;10.794;2022-10-31T13:36:19;7.55;;;5.78;;
10977;SDS011;5542;48.272;10.794;2022-10-31T13:38:52;9.00;;;6.47;;
10977;SDS011;5542;48.272;10.794;2022-10-31T13:41:29;6.97;;;4.93;;
10977;SDS011;5542;48.272;10.794;2022-10-31T13:44:08;5.65;;;4.80;;
10977;SDS011;5542;48.272;10.794;2022-10-31T13:46:40;4.95;;;4.55;;
10977;SDS011;5542;48.272;10.794;2022-10-31T13:49:25;9.85;;;6.40;;
10977;SDS011;5542;48.272;10.794;2022-10-31T13:52:13;11.17;;;6.70;;
10977;SDS011;5542;48.272;10.794;2022-10-31T13:54:42;8.77;;;6.60;;
10977;SDS011;5542;48.272;10.794;2022-10-31T13:57:16;8.75;;;6.70;;
10977;SDS011;5542;48.272;10.794;2022-10-31T13:59:47;5.22;;;4.72;;
10977;SDS011;5542;48.272;10.794;2022-10-31T14:02:17;5.28;;;4.78;;
10977;SDS011;5542;48.272;10.794;2022-10-31T14:04:50;6.40;;;4.97;;
10977;SDS011;5542;48.272;10.794;2022-10-31T14:07:20;10.32;;;7.32;;
10977;SDS011;5542;48.272;10.794;2022-10-31T14:09:52;6.03;;;4.78;;
10977;SDS011;5542;48.272;10.794;2022-10-31T14:12:23;6.95;;;6.25;;
10977;SDS011;5542;48.272;10.794;2022-10-31T14:14:54;10.82;;;7.18;;
10977;SDS011;5542;48.272;10.794;2022-10-31T14:17:24;7.32;;;5.82;;
10977;SDS011;5542;48.272;10.794;2022-10-31T14:20:02;9.80;;;6.93;;
10977;SDS011;5542;48.272;10.794;2022-10-31T14:22:46;7.97;;;6.68;;
10977;SDS011;5542;48.272;10.794;2022-10-31T14:25:25;7.35;;;6.38;;
10977;SDS011;5542;48.272;10.794;2022-10-31T14:27:57;9.85;;;6.80;;
10977;SDS011;5542;48.272;10.794;2022-10-31T14:30:25;7.13;;;6.10;;
10977;SDS011;5542;48.272;10.794;2022-10-31T14:32:54;8.60;;;7.63;;
10977;SDS011;5542;48.272;10.794;2022-10-31T14:35:26;10.27;;;7.50;;
10977;SDS011;5542;48.272;10.794;2022-10-31T14:38:10;8.10;;;6.70;;
10977;SDS011;5542;48.272;10.794;2022-10-31T14:46:54;9.30;;;7.18;;
10977;SDS011;5542;48.272;10.794;2022-10-31T14:49:35;7.65;;;6.20;;
10977;SDS011;5542;48.272;10.794;2022-10-31T14:52:16;10.73;;;7.45;;
10977;SDS011;5542;48.272;10.794;2022-10-31T14:54:48;8.85;;;7.53;;
10977;SDS011;5542;48.272;10.794;2022-10-31T14:57:19;9.57;;;8.13;;
10977;SDS011;5542;48.272;10.794;2022-10-31T14:59:48;8.50;;;6.80;;
10977;SDS011;5542;48.272;10.794;2022-10-31T15:02:19;8.05;;;7.25;;
10977;SDS011;5542;48.272;10.794;2022-10-31T15:04:50;7.17;;;5.50;;
10977;SDS011;5542;48.272;10.794;2022-10-31T15:07:18;9.75;;;7.70;;
10977;SDS011;5542;48.272;10.794;2022-10-31T15:09:56;7.78;;;6.97;;
10977;SDS011;5542;48.272;10.794;2022-10-31T15:12:24;11.65;;;8.93;;
10977;SDS011;5542;48.272;10.794;2022-10-31T15:14:53;10.37;;;8.07;;
10977;SDS011;5542;48.272;10.794;2022-10-31T15:17:20;7.75;;;6.45;;
10977;SDS011;5542;48.272;10.794;2022-10-31T15:19:47;7.53;;;5.80;;
10977;SDS011;5542;48.272;10.794;2022-10-31T15:22:14;7.68;;;5.63;;